Weirton, West Virginia
Current Conditions -  °F | °C
As of 12:25 PM on Tuesday 21 Oct 2014 (Local Time) from KHLG Reporting Station
Light Rain Light Rain  
Wind Chill: 51°   Ceiling: 4500
Heat Index: 51°   Visibility: 8mi
Dew Point: 48°   Wind: 9mph
Humidity: 89%   Direction: 330°NNW
Pressure: 29.9"   Gusts: NA
Location:  40.42°N, 80.59°W
Report Text: KHLG 211625Z 33008KT 8SM -RA SCT012 BKN045 OVC060 11/09 A2990 RMK AO2 P0001 T01060089
Loading
Personal Weather Stations






























Interactive Weather Map
Tropical Storm Tracking
New forecast layout! Learn more

10-Day Weather Forecast

Advertisements
Track Severe Weather on mobile